Time;durP1;ratioP1;P1;durP2;ratioP2;P2;SDS_P1;SDS_P2;PMS_P1;PMS_P2;Temp;Humidity;BMP_temperature;BMP_pressure;BME280_temperature;BME280_humidity;BME280_pressure;Samples;Min_cycle;Max_cycle;Signal;HPM_P1;HPM_P2
2022/04/22 00:01:58;;;;;;;;;;;15.20;85.70;;;;;;4346560;32;42542;-80
2022/04/22 00:04:32;;;;;;;;;;;15.20;86.00;;;;;;4360316;32;45197;-78
2022/04/22 00:07:00;;;;;;;;;;;15.20;85.70;;;;;;4360343;32;43228;-80
2022/04/22 00:09:27;;;;;;;;;;;15.20;86.00;;;;;;4347135;32;43886;-80
2022/04/22 00:11:54;;;;;;;;;;;15.20;85.70;;;;;;4359812;32;43959;-80
2022/04/22 00:14:21;;;;;;;;;;;15.10;85.60;;;;;;4346788;32;43213;-80
2022/04/22 00:16:48;;;;;;;;;;;15.10;85.80;;;;;;4360237;32;43854;-80
2022/04/22 00:19:15;;;;;;;;;;;15.10;85.90;;;;;;4360491;32;43250;-79
2022/04/22 00:21:43;;;;;;;;;;;15.10;86.00;;;;;;4359760;32;43733;-80
2022/04/22 00:24:10;;;;;;;;;;;15.10;86.10;;;;;;4359811;32;43191;-80
2022/04/22 00:26:37;;;;;;;;;;;15.10;86.20;;;;;;4360423;32;43213;-80
2022/04/22 00:29:05;;;;;;;;;;;15.10;85.80;;;;;;4360256;32;43125;-80
2022/04/22 00:31:32;;;;;;;;;;;15.00;86.20;;;;;;4346931;32;43225;-80
2022/04/22 00:33:59;;;;;;;;;;;15.00;86.30;;;;;;4359937;32;45989;-80
2022/04/22 00:36:26;;;;;;;;;;;15.00;86.20;;;;;;4347154;33;43942;-80
2022/04/22 00:38:53;;;;;;;;;;;15.00;86.10;;;;;;4359624;33;42960;-80
2022/04/22 00:41:20;;;;;;;;;;;15.00;86.90;;;;;;4359926;33;43486;-80
2022/04/22 00:43:49;;;;;;;;;;;15.00;86.30;;;;;;4346800;33;44183;-80
2022/04/22 00:46:16;;;;;;;;;;;14.90;86.10;;;;;;4359504;33;43035;-80
2022/04/22 00:48:44;;;;;;;;;;;14.90;86.50;;;;;;4360065;33;46041;-80
2022/04/22 00:51:12;;;;;;;;;;;14.90;86.60;;;;;;4359635;33;44192;-80
2022/04/22 00:53:40;;;;;;;;;;;14.90;86.50;;;;;;4359513;33;44312;-80
2022/04/22 00:56:10;;;;;;;;;;;14.90;86.50;;;;;;4359760;33;42887;-80
2022/04/22 00:58:42;;;;;;;;;;;14.90;86.80;;;;;;4361969;32;44747;-80
2022/04/22 01:01:11;;;;;;;;;;;14.80;86.80;;;;;;4362794;32;45970;-80
2022/04/22 01:03:38;;;;;;;;;;;14.90;86.80;;;;;;4363069;32;44651;-80
2022/04/22 01:11:39;;;;;;;;;;;14.80;87.00;;;;;;4362726;32;44175;-80
2022/04/22 01:14:07;;;;;;;;;;;14.80;87.10;;;;;;4363290;32;20373;-80
2022/04/22 01:16:34;;;;;;;;;;;14.80;87.10;;;;;;4349425;32;43452;-80
2022/04/22 01:19:01;;;;;;;;;;;14.80;87.10;;;;;;4349076;32;42816;-80
2022/04/22 01:21:28;;;;;;;;;;;14.70;87.30;;;;;;4349418;32;44239;-80
2022/04/22 01:23:55;;;;;;;;;;;14.70;87.40;;;;;;4362666;32;44193;-80
2022/04/22 01:26:22;;;;;;;;;;;14.70;87.50;;;;;;4349028;32;44287;-80
2022/04/22 01:28:50;;;;;;;;;;;14.60;87.60;;;;;;4362757;32;44154;-80
2022/04/22 01:31:17;;;;;;;;;;;14.60;87.70;;;;;;4348817;32;42660;-80
2022/04/22 01:33:44;;;;;;;;;;;14.60;87.80;;;;;;4362074;32;43626;-80
2022/04/22 01:36:11;;;;;;;;;;;14.60;87.70;;;;;;4362276;32;42799;-80
2022/04/22 01:38:38;;;;;;;;;;;14.60;87.20;;;;;;4349035;32;43737;-80
2022/04/22 01:41:05;;;;;;;;;;;14.50;87.50;;;;;;4348915;32;43988;-80
2022/04/22 01:43:34;;;;;;;;;;;14.50;87.60;;;;;;4361959;32;43032;-80
2022/04/22 01:46:01;;;;;;;;;;;14.40;87.50;;;;;;4361903;32;43651;-80
2022/04/22 01:48:30;;;;;;;;;;;14.40;87.20;;;;;;4349048;32;43710;-80
2022/04/22 01:50:58;;;;;;;;;;;14.40;87.70;;;;;;4348742;32;42823;-80
2022/04/22 01:53:25;;;;;;;;;;;14.40;87.60;;;;;;4361676;32;45393;-80
2022/04/22 01:55:52;;;;;;;;;;;14.40;87.70;;;;;;4348433;32;43770;-80
2022/04/22 01:58:19;;;;;;;;;;;14.40;87.90;;;;;;4348292;32;43802;-80
2022/04/22 02:00:46;;;;;;;;;;;14.40;87.70;;;;;;4361834;32;42725;-80
2022/04/22 02:03:13;;;;;;;;;;;14.40;88.20;;;;;;4348416;32;43409;-80
2022/04/22 02:05:41;;;;;;;;;;;14.40;87.90;;;;;;4361551;32;44403;-80
2022/04/22 02:08:09;;;;;;;;;;;14.30;87.50;;;;;;4348381;32;43182;-80
2022/04/22 02:10:36;;;;;;;;;;;14.30;87.70;;;;;;4361517;32;42981;-80
2022/04/22 02:13:03;;;;;;;;;;;14.30;88.00;;;;;;4361922;32;43862;-80
2022/04/22 02:15:30;;;;;;;;;;;14.20;88.20;;;;;;4348195;32;44189;-80
2022/04/22 02:17:57;;;;;;;;;;;14.20;88.10;;;;;;4361647;32;43763;-80
2022/04/22 02:20:24;;;;;;;;;;;14.20;88.00;;;;;;4361860;32;43779;-81
2022/04/22 02:22:51;;;;;;;;;;;14.20;88.20;;;;;;4347983;32;42369;-80
2022/04/22 02:25:18;;;;;;;;;;;14.20;88.40;;;;;;4347983;32;43014;-80
2022/04/22 02:30:31;;;;;;;;;;;14.10;88.40;;;;;;4361822;32;44359;-80
2022/04/22 02:32:58;;;;;;;;;;;14.10;88.50;;;;;;4361655;32;42048;-80
2022/04/22 02:35:25;;;;;;;;;;;14.10;88.80;;;;;;4361161;32;43662;-80
2022/04/22 02:37:55;;;;;;;;;;;14.10;88.90;;;;;;4348137;32;43841;-80
2022/04/22 02:45:54;;;;;;;;;;;14.00;89.00;;;;;;4361448;32;43242;-80
2022/04/22 02:48:21;;;;;;;;;;;14.00;88.90;;;;;;4361744;32;43179;-80
2022/04/22 02:50:48;;;;;;;;;;;14.00;89.30;;;;;;4348174;32;43364;-80
2022/04/22 02:53:16;;;;;;;;;;;14.00;89.00;;;;;;4361393;32;43864;-80
2022/04/22 02:55:46;;;;;;;;;;;14.00;88.90;;;;;;4347979;32;43715;-80
2022/04/22 02:58:14;;;;;;;;;;;13.90;88.70;;;;;;4361327;32;43953;-80
2022/04/22 03:00:41;;;;;;;;;;;13.90;88.70;;;;;;4347425;32;45084;-80
2022/04/22 03:03:08;;;;;;;;;;;13.90;88.90;;;;;;4360718;32;43854;-80
2022/04/22 03:05:35;;;;;;;;;;;13.90;88.80;;;;;;4361410;32;43964;-80
2022/04/22 03:08:02;;;;;;;;;;;14.00;88.90;;;;;;4360668;32;44191;-80
2022/04/22 03:10:29;;;;;;;;;;;14.00;88.40;;;;;;4347676;32;44230;-80
2022/04/22 03:12:56;;;;;;;;;;;14.00;88.10;;;;;;4347805;32;43724;-80
2022/04/22 03:15:24;;;;;;;;;;;14.00;88.30;;;;;;4361143;32;43868;-80
2022/04/22 03:17:51;;;;;;;;;;;14.00;88.40;;;;;;4360701;32;43843;-80
2022/04/22 03:20:18;;;;;;;;;;;14.00;88.30;;;;;;4347207;32;43478;-81
2022/04/22 03:22:45;;;;;;;;;;;14.00;88.10;;;;;;4360953;32;46023;-80
2022/04/22 03:25:12;;;;;;;;;;;14.00;88.20;;;;;;4360425;32;43192;-80
2022/04/22 03:27:39;;;;;;;;;;;14.00;88.50;;;;;;4360834;32;43497;-80
2022/04/22 03:30:06;;;;;;;;;;;14.00;88.50;;;;;;4347235;32;43169;-80
2022/04/22 03:32:33;;;;;;;;;;;13.90;88.20;;;;;;4360765;32;43933;-80
2022/04/22 03:35:03;;;;;;;;;;;13.90;88.50;;;;;;4360768;32;43909;-80
2022/04/22 03:37:31;;;;;;;;;;;13.90;88.50;;;;;;4360784;32;43744;-80
2022/04/22 03:39:58;;;;;;;;;;;13.90;88.40;;;;;;4347425;32;43385;-80
2022/04/22 03:42:25;;;;;;;;;;;13.90;88.70;;;;;;4360134;32;43849;-80
2022/04/22 03:44:52;;;;;;;;;;;13.90;88.70;;;;;;4360266;32;42892;-80
2022/04/22 03:47:19;;;;;;;;;;;13.90;88.90;;;;;;4360014;32;44008;-80
2022/04/22 03:49:46;;;;;;;;;;;13.80;88.60;;;;;;4360092;32;42628;-80
2022/04/22 03:52:14;;;;;;;;;;;13.80;88.80;;;;;;4360403;32;43900;-80
2022/04/22 03:54:41;;;;;;;;;;;13.80;89.10;;;;;;4347210;32;44175;-80
2022/04/22 03:59:54;;;;;;;;;;;13.80;89.10;;;;;;4360389;32;43968;-80
2022/04/22 04:02:21;;;;;;;;;;;13.70;89.10;;;;;;4360053;32;43859;-80
2022/04/22 04:04:50;;;;;;;;;;;13.70;89.10;;;;;;4360149;32;44211;-80
2022/04/22 04:07:17;;;;;;;;;;;13.70;89.50;;;;;;4346940;32;43282;-80
2022/04/22 04:18:02;;;;;;;;;;;13.60;89.80;;;;;;4359903;32;42645;-80
2022/04/22 04:23:14;;;;;;;;;;;13.50;90.00;;;;;;4360061;32;43784;-80
2022/04/22 04:25:41;;;;;;;;;;;13.50;90.00;;;;;;4359693;32;44676;-80
2022/04/22 04:28:09;;;;;;;;;;;13.50;90.10;;;;;;4360214;32;43900;-80
2022/04/22 04:30:37;;;;;;;;;;;13.50;90.10;;;;;;4346794;32;44133;-80
2022/04/22 04:33:04;;;;;;;;;;;13.40;90.10;;;;;;4346285;32;42958;-80
2022/04/22 04:35:32;;;;;;;;;;;13.40;90.10;;;;;;4359969;32;42855;-80
2022/04/22 04:37:59;;;;;;;;;;;13.40;90.20;;;;;;4359670;33;42673;-80
2022/04/22 04:40:26;;;;;;;;;;;13.40;90.20;;;;;;4359626;33;43182;-80
2022/04/22 04:42:53;;;;;;;;;;;13.40;90.20;;;;;;4359997;33;43027;-80
2022/04/22 04:45:20;;;;;;;;;;;13.40;90.40;;;;;;4359574;33;43575;-80
2022/04/22 04:47:47;;;;;;;;;;;13.40;90.40;;;;;;4346217;33;43417;-80
2022/04/22 04:50:14;;;;;;;;;;;13.30;90.40;;;;;;4346470;33;42465;-80
2022/04/22 04:52:41;;;;;;;;;;;13.30;90.40;;;;;;4360065;33;43470;-80
2022/04/22 04:55:09;;;;;;;;;;;13.30;90.40;;;;;;4359529;33;42866;-80
2022/04/22 04:57:36;;;;;;;;;;;13.30;90.50;;;;;;4359514;33;42855;-80
2022/04/22 05:00:08;;;;;;;;;;;13.30;90.50;;;;;;4359953;33;43692;-80
2022/04/22 05:02:36;;;;;;;;;;;13.30;90.50;;;;;;4359829;33;43898;-80
2022/04/22 05:05:05;;;;;;;;;;;13.30;90.50;;;;;;4346686;33;44257;-80
2022/04/22 05:07:32;;;;;;;;;;;13.30;90.60;;;;;;4359362;33;42486;-80
2022/04/22 05:09:59;;;;;;;;;;;13.30;90.70;;;;;;4359843;33;43245;-80
2022/04/22 05:12:31;;;;;;;;;;;13.30;90.70;;;;;;4359951;33;42578;-80
2022/04/22 05:14:58;;;;;;;;;;;13.30;90.80;;;;;;4359556;33;44144;-79
2022/04/22 05:17:25;;;;;;;;;;;13.30;90.90;;;;;;4359719;33;42117;-80
2022/04/22 05:19:52;;;;;;;;;;;13.30;91.00;;;;;;4359644;33;42847;-79
2022/04/22 05:22:19;;;;;;;;;;;13.20;91.10;;;;;;4359942;33;42173;-80
2022/04/22 05:24:47;;;;;;;;;;;13.20;91.10;;;;;;4346341;33;43248;-79
2022/04/22 05:27:14;;;;;;;;;;;13.20;91.30;;;;;;4359756;33;43367;-80
2022/04/22 05:32:39;;;;;;;;;;;13.20;91.40;;;;;;4359317;33;44024;-80
2022/04/22 05:35:07;;;;;;;;;;;13.10;91.50;;;;;;4346401;33;42598;-80
2022/04/22 05:37:50;;;;;;;;;;;13.10;91.60;;;;;;4359234;33;43273;-79
2022/04/22 05:40:18;;;;;;;;;;;13.10;91.70;;;;;;4359841;33;43895;-80
2022/04/22 05:42:48;;;;;;;;;;;13.10;91.90;;;;;;4359537;32;44250;-79
2022/04/22 05:45:16;;;;;;;;;;;13.10;92.00;;;;;;4348503;32;42836;-80
2022/04/22 05:47:43;;;;;;;;;;;13.00;92.00;;;;;;4362261;32;44026;-79
2022/04/22 05:50:14;;;;;;;;;;;13.00;92.10;;;;;;4361879;32;42366;-80
2022/04/22 05:52:42;;;;;;;;;;;13.10;92.20;;;;;;4348431;32;43067;-79
2022/04/22 05:55:19;;;;;;;;;;;13.10;92.20;;;;;;4348676;32;43706;-80
2022/04/22 05:57:46;;;;;;;;;;;13.10;92.30;;;;;;4348943;32;43905;-79
2022/04/22 06:00:14;;;;;;;;;;;13.10;92.40;;;;;;4361602;32;42507;-80
2022/04/22 06:02:42;;;;;;;;;;;13.10;92.40;;;;;;4348123;32;43010;-80
2022/04/22 06:05:10;;;;;;;;;;;13.10;92.40;;;;;;4362237;32;42985;-80
2022/04/22 06:07:38;;;;;;;;;;;13.10;92.30;;;;;;4361715;32;44187;-79
2022/04/22 06:12:51;;;;;;;;;;;13.10;92.40;;;;;;4362088;32;42794;-80
2022/04/22 06:15:18;;;;;;;;;;;13.10;92.50;;;;;;4348604;32;43506;-79
2022/04/22 06:17:46;;;;;;;;;;;13.10;92.60;;;;;;4362545;32;20011;-80
2022/04/22 06:20:13;;;;;;;;;;;13.10;92.60;;;;;;4361894;32;43952;-80
2022/04/22 06:22:40;;;;;;;;;;;13.10;92.70;;;;;;4361340;32;44222;-80
2022/04/22 06:25:11;;;;;;;;;;;13.10;92.70;;;;;;4348443;32;43344;-80
2022/04/22 06:27:39;;;;;;;;;;;13.10;92.80;;;;;;4348105;32;44170;-80
2022/04/22 06:30:07;;;;;;;;;;;13.10;92.60;;;;;;4361741;32;43910;-80
2022/04/22 06:32:35;;;;;;;;;;;13.10;92.50;;;;;;4348061;32;42516;-80
2022/04/22 06:35:03;;;;;;;;;;;13.20;92.50;;;;;;4348431;32;43853;-80
2022/04/22 06:37:34;;;;;;;;;;;13.20;92.40;;;;;;4361622;32;42811;-80
2022/04/22 06:45:46;;;;;;;;;;;13.20;92.50;;;;;;4361369;32;43871;-80
2022/04/22 06:48:14;;;;;;;;;;;13.20;92.70;;;;;;4362707;32;20039;-80
2022/04/22 06:51:02;;;;;;;;;;;13.20;92.60;;;;;;4361479;32;45160;-80
2022/04/22 06:53:29;;;;;;;;;;;13.20;92.50;;;;;;4361513;32;43738;-80
2022/04/22 06:56:06;;;;;;;;;;;13.30;92.40;;;;;;4360388;32;43138;-80
2022/04/22 06:58:37;;;;;;;;;;;13.30;92.40;;;;;;4361415;32;43064;-80
2022/04/22 07:01:05;;;;;;;;;;;13.30;92.50;;;;;;4348136;32;43304;-80
2022/04/22 07:03:52;;;;;;;;;;;13.30;92.40;;;;;;4361325;32;45269;-80
2022/04/22 07:06:19;;;;;;;;;;;13.30;92.50;;;;;;4361030;32;43456;-80
2022/04/22 07:08:46;;;;;;;;;;;13.40;92.40;;;;;;4361040;32;44299;-80
2022/04/22 07:11:20;;;;;;;;;;;13.40;92.60;;;;;;4347894;32;43107;-80
2022/04/22 07:13:48;;;;;;;;;;;13.40;92.50;;;;;;4360777;32;42553;-79
2022/04/22 07:16:16;;;;;;;;;;;13.40;92.40;;;;;;4347170;32;44132;-80
2022/04/22 07:18:44;;;;;;;;;;;13.40;92.80;;;;;;4361806;32;19997;-80
2022/04/22 07:21:11;;;;;;;;;;;13.40;92.60;;;;;;4360903;32;43195;-80
2022/04/22 07:23:38;;;;;;;;;;;13.40;92.70;;;;;;4360482;32;43203;-80
2022/04/22 07:26:07;;;;;;;;;;;13.40;92.60;;;;;;4360791;32;45948;-79
2022/04/22 07:28:34;;;;;;;;;;;13.40;92.50;;;;;;4360811;32;43849;-80
2022/04/22 07:31:01;;;;;;;;;;;13.40;92.50;;;;;;4347012;32;42336;-80
2022/04/22 07:33:32;;;;;;;;;;;13.50;92.60;;;;;;4360685;32;42140;-80
2022/04/22 07:35:59;;;;;;;;;;;13.50;92.70;;;;;;4347394;32;44278;-80
2022/04/22 07:38:28;;;;;;;;;;;13.50;92.50;;;;;;4360796;32;43851;-80
2022/04/22 07:40:55;;;;;;;;;;;13.50;92.50;;;;;;4360344;32;43446;-80
2022/04/22 07:48:56;;;;;;;;;;;13.50;92.50;;;;;;4361189;32;20056;-80
2022/04/22 07:51:25;;;;;;;;;;;13.50;92.50;;;;;;4360316;32;42663;-79
2022/04/22 07:53:53;;;;;;;;;;;13.50;92.50;;;;;;4347246;32;43681;-80
2022/04/22 07:56:20;;;;;;;;;;;13.60;92.70;;;;;;4360468;32;44794;-80
2022/04/22 07:58:47;;;;;;;;;;;13.60;92.70;;;;;;4360396;32;43311;-80
2022/04/22 08:01:14;;;;;;;;;;;13.60;92.50;;;;;;4360234;32;43757;-80
2022/04/22 08:03:41;;;;;;;;;;;13.60;92.50;;;;;;4346704;32;43074;-80
2022/04/22 08:06:10;;;;;;;;;;;13.60;92.50;;;;;;4346426;32;45246;-80
2022/04/22 08:08:37;;;;;;;;;;;13.60;92.50;;;;;;4360018;32;43684;-79
2022/04/22 08:11:04;;;;;;;;;;;13.60;92.50;;;;;;4347083;32;43884;-79
2022/04/22 08:13:32;;;;;;;;;;;13.60;92.40;;;;;;4359860;32;42945;-79
2022/04/22 08:15:59;;;;;;;;;;;13.60;92.50;;;;;;4346552;32;44188;-79
2022/04/22 08:18:26;;;;;;;;;;;13.60;92.40;;;;;;4360286;32;43746;-79
2022/04/22 08:20:53;;;;;;;;;;;13.60;92.50;;;;;;4359789;32;42491;-79
2022/04/22 08:23:22;;;;;;;;;;;13.60;92.40;;;;;;4346445;32;43699;-79
2022/04/22 08:25:49;;;;;;;;;;;13.60;92.30;;;;;;4359705;32;43458;-79
2022/04/22 08:28:16;;;;;;;;;;;13.70;92.30;;;;;;4360270;32;43317;-79
2022/04/22 08:30:43;;;;;;;;;;;13.70;92.40;;;;;;4360182;32;43943;-79
2022/04/22 08:33:11;;;;;;;;;;;13.70;92.40;;;;;;4359659;32;42370;-78
2022/04/22 08:35:38;;;;;;;;;;;13.70;92.20;;;;;;4346299;32;43216;-80
2022/04/22 08:38:07;;;;;;;;;;;13.70;92.20;;;;;;4360174;33;43508;-79
2022/04/22 08:40:35;;;;;;;;;;;13.60;92.20;;;;;;4346447;33;42514;-79
2022/04/22 08:43:03;;;;;;;;;;;13.60;92.20;;;;;;4360124;33;43934;-79
2022/04/22 08:45:33;;;;;;;;;;;13.60;92.20;;;;;;4346182;33;43784;-78
2022/04/22 08:50:49;;;;;;;;;;;13.60;92.00;;;;;;4360185;33;43164;-79
2022/04/22 08:53:20;;;;;;;;;;;13.60;91.90;;;;;;4360191;33;43500;-79
2022/04/22 08:55:50;;;;;;;;;;;13.60;91.80;;;;;;4360032;33;43870;-79
2022/04/22 08:58:17;;;;;;;;;;;13.70;91.90;;;;;;4359614;33;43187;-79
2022/04/22 09:00:46;;;;;;;;;;;13.70;91.90;;;;;;4346224;33;42417;-79
2022/04/22 09:03:14;;;;;;;;;;;13.70;91.90;;;;;;4359424;33;44236;-80
2022/04/22 09:05:41;;;;;;;;;;;13.60;92.00;;;;;;4359830;33;43799;-79
2022/04/22 09:08:08;;;;;;;;;;;13.70;92.00;;;;;;4359279;33;44465;-80
2022/04/22 09:10:38;;;;;;;;;;;13.70;91.90;;;;;;4346537;33;42871;-79
2022/04/22 09:13:10;;;;;;;;;;;13.70;91.90;;;;;;4359993;33;44300;-79
2022/04/22 09:15:39;;;;;;;;;;;13.70;91.90;;;;;;4360057;33;44312;-79
2022/04/22 09:18:26;;;;;;;;;;;13.70;91.90;;;;;;4360249;32;45999;-79
2022/04/22 09:20:56;;;;;;;;;;;13.70;92.00;;;;;;4362705;32;43857;-79
2022/04/22 09:23:34;;;;;;;;;;;13.70;92.00;;;;;;4362223;32;43987;-79
2022/04/22 09:26:02;;;;;;;;;;;13.70;92.00;;;;;;4362235;32;43587;-79
2022/04/22 09:28:29;;;;;;;;;;;13.70;92.10;;;;;;4362043;32;43473;-80
2022/04/22 09:30:57;;;;;;;;;;;13.70;91.90;;;;;;4349058;32;42634;-79
2022/04/22 09:33:24;;;;;;;;;;;13.70;91.90;;;;;;4362551;32;43906;-80
2022/04/22 09:44:24;;;;;;;;;;;13.60;91.60;;;;;;4362136;32;43636;-80
2022/04/22 09:47:11;;;;;;;;;;;13.70;91.70;;;;;;4348703;32;42850;-80
2022/04/22 09:49:43;;;;;;;;;;;13.70;91.90;;;;;;4349722;32;45031;-80
2022/04/22 09:52:11;;;;;;;;;;;13.70;91.90;;;;;;4361809;32;43065;-80
2022/04/22 09:54:38;;;;;;;;;;;13.70;91.90;;;;;;4361722;32;45068;-80
2022/04/22 09:57:25;;;;;;;;;;;13.70;91.90;;;;;;4362154;32;46088;-80
2022/04/22 09:59:52;;;;;;;;;;;13.70;91.70;;;;;;4348632;32;43504;-80
2022/04/22 10:02:21;;;;;;;;;;;13.70;91.70;;;;;;4361466;32;43174;-80
2022/04/22 10:04:49;;;;;;;;;;;13.70;91.60;;;;;;4361557;32;44040;-80
2022/04/22 10:07:17;;;;;;;;;;;13.70;91.60;;;;;;4361460;32;43970;-80
2022/04/22 10:09:49;;;;;;;;;;;13.70;91.70;;;;;;4361774;32;43275;-80
2022/04/22 10:12:18;;;;;;;;;;;13.70;91.70;;;;;;4362127;32;43854;-80
2022/04/22 10:14:46;;;;;;;;;;;13.70;91.70;;;;;;4348618;32;44222;-80
2022/04/22 10:17:14;;;;;;;;;;;13.70;91.70;;;;;;4361914;32;44278;-80
2022/04/22 10:19:42;;;;;;;;;;;13.60;91.60;;;;;;4361436;32;43215;-80
2022/04/22 10:22:10;;;;;;;;;;;13.70;91.70;;;;;;4362284;32;20043;-80
2022/04/22 10:24:38;;;;;;;;;;;13.60;91.60;;;;;;4361502;32;42625;-80
2022/04/22 10:27:07;;;;;;;;;;;13.70;91.70;;;;;;4361306;32;42294;-80
2022/04/22 10:29:40;;;;;;;;;;;13.60;91.80;;;;;;4360972;32;44721;-80
2022/04/22 10:32:27;;;;;;;;;;;13.70;91.70;;;;;;4350646;32;45368;-80
2022/04/22 10:34:58;;;;;;;;;;;13.70;91.60;;;;;;4347899;32;42704;-80
2022/04/22 10:37:28;;;;;;;;;;;13.70;91.80;;;;;;4361610;32;43710;-80
2022/04/22 10:39:59;;;;;;;;;;;13.70;91.80;;;;;;4361131;32;43726;-81
2022/04/22 10:42:33;;;;;;;;;;;13.70;91.80;;;;;;4361761;32;44099;-80
2022/04/22 10:47:53;;;;;;;;;;;13.70;91.80;;;;;;4361172;32;42384;-80
2022/04/22 10:50:27;;;;;;;;;;;13.70;91.90;;;;;;4361293;32;43251;-80
2022/04/22 10:53:02;;;;;;;;;;;13.70;92.10;;;;;;4348333;32;20009;-81
2022/04/22 10:55:36;;;;;;;;;;;13.70;92.10;;;;;;4348085;32;45827;-81
2022/04/22 10:58:24;;;;;;;;;;;13.80;92.20;;;;;;4350215;32;46308;-80
2022/04/22 11:00:51;;;;;;;;;;;13.80;92.50;;;;;;4360813;32;43791;-81
2022/04/22 11:03:23;;;;;;;;;;;13.80;92.20;;;;;;4347356;32;43304;-80
2022/04/22 11:05:57;;;;;;;;;;;13.80;92.20;;;;;;4348402;32;43201;-81
2022/04/22 11:08:37;;;;;;;;;;;13.80;92.20;;;;;;4360880;32;43309;-80
2022/04/22 11:11:04;;;;;;;;;;;13.80;92.30;;;;;;4348196;32;44226;-81
2022/04/22 11:13:38;;;;;;;;;;;13.80;92.30;;;;;;4361221;32;44223;-80
2022/04/22 11:16:09;;;;;;;;;;;13.80;92.30;;;;;;4347785;32;42715;-80
2022/04/22 11:18:39;;;;;;;;;;;13.80;92.40;;;;;;4347758;32;43787;-81
2022/04/22 11:21:11;;;;;;;;;;;13.90;92.40;;;;;;4360610;32;43586;-80
2022/04/22 11:23:40;;;;;;;;;;;13.90;92.30;;;;;;4348327;32;19993;-80
2022/04/22 11:26:08;;;;;;;;;;;13.90;92.40;;;;;;4347453;32;43103;-80
2022/04/22 11:28:35;;;;;;;;;;;13.90;92.40;;;;;;4346966;32;44099;-81
2022/04/22 11:31:03;;;;;;;;;;;14.00;92.30;;;;;;4360660;32;43228;-80
2022/04/22 11:33:35;;;;;;;;;;;14.00;92.10;;;;;;4347357;32;44145;-80
2022/04/22 11:36:07;;;;;;;;;;;14.00;91.90;;;;;;4361047;32;43187;-81
2022/04/22 11:38:34;;;;;;;;;;;14.00;91.80;;;;;;4360850;32;42550;-80
2022/04/22 11:41:01;;;;;;;;;;;14.00;91.80;;;;;;4359888;32;44125;-80
2022/04/22 11:43:29;;;;;;;;;;;14.00;91.90;;;;;;4360263;32;42613;-80
2022/04/22 11:45:57;;;;;;;;;;;14.00;92.10;;;;;;4346937;32;43950;-80
2022/04/22 11:48:25;;;;;;;;;;;14.10;92.20;;;;;;4360335;32;44418;-80
2022/04/22 11:50:55;;;;;;;;;;;14.10;92.00;;;;;;4346899;32;43346;-80
2022/04/22 11:53:26;;;;;;;;;;;14.10;91.80;;;;;;4347175;32;42677;-80
2022/04/22 11:55:53;;;;;;;;;;;14.10;91.80;;;;;;4346761;32;44138;-81
2022/04/22 11:58:20;;;;;;;;;;;14.10;91.80;;;;;;4360470;32;44119;-80
2022/04/22 12:06:23;;;;;;;;;;;14.20;91.80;;;;;;4360413;32;44216;-80
2022/04/22 12:08:50;;;;;;;;;;;14.20;91.70;;;;;;4346722;32;42618;-80
2022/04/22 12:11:17;;;;;;;;;;;14.20;91.40;;;;;;4347130;32;43475;-80
2022/04/22 12:13:47;;;;;;;;;;;14.20;91.30;;;;;;4347314;32;43221;-80
2022/04/22 12:16:18;;;;;;;;;;;14.30;91.30;;;;;;4359797;32;43477;-80
2022/04/22 12:18:48;;;;;;;;;;;14.30;91.50;;;;;;4346896;32;43263;-80
2022/04/22 12:21:16;;;;;;;;;;;14.30;91.50;;;;;;4359742;32;43201;-80
2022/04/22 12:23:44;;;;;;;;;;;14.30;91.60;;;;;;4346623;32;43822;-81
2022/04/22 12:26:15;;;;;;;;;;;14.40;91.50;;;;;;4346755;32;42826;-81
2022/04/22 12:29:02;;;;;;;;;;;14.30;91.20;;;;;;4360106;32;43508;-80
2022/04/22 12:31:30;;;;;;;;;;;14.40;91.20;;;;;;4346954;32;44005;-81
2022/04/22 12:33:58;;;;;;;;;;;14.40;91.10;;;;;;4346378;32;44840;-81
2022/04/22 12:36:25;;;;;;;;;;;14.40;91.10;;;;;;4359676;32;42492;-80
2022/04/22 12:38:52;;;;;;;;;;;14.40;91.20;;;;;;4359627;32;43009;-80
2022/04/22 12:41:26;;;;;;;;;;;14.40;91.20;;;;;;4360227;33;43921;-80
2022/04/22 12:43:54;;;;;;;;;;;14.40;91.30;;;;;;4360065;33;42305;-80
2022/04/22 12:52:09;;;;;;;;;;;14.50;91.40;;;;;;4360124;33;43123;-80
2022/04/22 12:54:37;;;;;;;;;;;14.50;91.30;;;;;;4361889;32;44703;-80
2022/04/22 12:57:05;;;;;;;;;;;14.50;91.30;;;;;;4363663;32;20032;-80
2022/04/22 12:59:43;;;;;;;;;;;14.50;91.20;;;;;;4362526;32;43442;-80
2022/04/22 13:02:11;;;;;;;;;;;14.50;91.00;;;;;;4349399;32;43590;-80
2022/04/22 13:04:55;;;;;;;;;;;14.50;90.90;;;;;;4349497;32;44545;-80
2022/04/22 13:07:23;;;;;;;;;;;14.60;90.90;;;;;;4362966;32;45584;-80
2022/04/22 13:09:50;;;;;;;;;;;14.60;90.90;;;;;;4362344;32;44219;-80
2022/04/22 13:12:17;;;;;;;;;;;14.70;90.90;;;;;;4348984;32;43177;-80
2022/04/22 13:14:45;;;;;;;;;;;14.60;90.90;;;;;;4362270;32;44331;-80
2022/04/22 13:17:19;;;;;;;;;;;14.70;90.80;;;;;;4362721;32;43898;-80
2022/04/22 13:19:46;;;;;;;;;;;14.70;90.80;;;;;;4362592;32;43893;-80
2022/04/22 13:22:13;;;;;;;;;;;14.70;90.50;;;;;;4362436;32;43268;-80
2022/04/22 13:24:44;;;;;;;;;;;14.70;90.50;;;;;;4362204;32;42757;-80
2022/04/22 13:27:14;;;;;;;;;;;14.70;90.70;;;;;;4363001;32;19997;-80
2022/04/22 13:29:41;;;;;;;;;;;14.80;90.40;;;;;;4349095;32;43964;-80
2022/04/22 13:32:08;;;;;;;;;;;14.80;90.30;;;;;;4348916;32;43006;-80
2022/04/22 13:34:35;;;;;;;;;;;14.80;90.30;;;;;;4348672;32;43697;-80
2022/04/22 13:37:03;;;;;;;;;;;14.80;90.40;;;;;;4348644;32;43180;-79
2022/04/22 13:39:30;;;;;;;;;;;14.90;90.40;;;;;;4362080;32;44003;-80
2022/04/22 13:41:57;;;;;;;;;;;14.80;90.50;;;;;;4349074;32;43010;-80
2022/04/22 13:52:42;;;;;;;;;;;14.90;90.50;;;;;;4362365;32;43232;-80
2022/04/22 13:55:10;;;;;;;;;;;14.90;90.40;;;;;;4362186;32;44192;-80
2022/04/22 13:57:37;;;;;;;;;;;15.00;90.10;;;;;;4349331;32;19997;-79
2022/04/22 14:00:04;;;;;;;;;;;15.00;90.20;;;;;;4361808;32;43466;-79
2022/04/22 14:02:31;;;;;;;;;;;15.00;90.30;;;;;;4348254;32;43536;-80
2022/04/22 14:04:58;;;;;;;;;;;15.00;90.00;;;;;;4347892;32;43621;-80
2022/04/22 14:07:26;;;;;;;;;;;15.10;90.10;;;;;;4348759;32;43325;-80
2022/04/22 14:09:53;;;;;;;;;;;15.10;89.80;;;;;;4361790;32;42220;-79
2022/04/22 14:12:20;;;;;;;;;;;15.10;89.30;;;;;;4348393;32;42910;-80
2022/04/22 14:14:47;;;;;;;;;;;15.10;89.40;;;;;;4362121;32;43731;-79
2022/04/22 14:17:14;;;;;;;;;;;15.10;89.10;;;;;;4361496;32;43450;-80
2022/04/22 14:19:41;;;;;;;;;;;15.20;89.30;;;;;;4348140;32;43180;-79
2022/04/22 14:22:08;;;;;;;;;;;15.20;88.70;;;;;;4361399;32;42802;-79
2022/04/22 14:24:35;;;;;;;;;;;15.30;89.30;;;;;;4361864;32;44223;-80
2022/04/22 14:27:05;;;;;;;;;;;15.30;89.50;;;;;;4361314;32;43222;-79
2022/04/22 14:29:33;;;;;;;;;;;15.30;89.60;;;;;;4361499;32;43513;-79
2022/04/22 14:32:01;;;;;;;;;;;15.30;89.00;;;;;;4347944;32;42844;-80
2022/04/22 14:34:29;;;;;;;;;;;15.40;89.10;;;;;;4361221;32;42517;-80
2022/04/22 14:36:56;;;;;;;;;;;15.40;89.10;;;;;;4361491;32;43726;-79
2022/04/22 14:39:26;;;;;;;;;;;15.40;88.90;;;;;;4361365;32;44606;-79
2022/04/22 14:41:53;;;;;;;;;;;15.40;88.80;;;;;;4347795;32;44231;-79
2022/04/22 14:44:21;;;;;;;;;;;15.40;88.80;;;;;;4348122;32;43943;-80
2022/04/22 14:46:49;;;;;;;;;;;15.50;88.50;;;;;;4361428;32;43708;-80
2022/04/22 14:49:16;;;;;;;;;;;15.50;88.50;;;;;;4348052;32;42693;-80
2022/04/22 14:51:45;;;;;;;;;;;15.50;88.60;;;;;;4360950;32;42744;-79
2022/04/22 14:54:12;;;;;;;;;;;15.50;88.20;;;;;;4347762;32;45027;-80
2022/04/22 14:56:39;;;;;;;;;;;15.50;88.00;;;;;;4347826;32;43206;-80
2022/04/22 14:59:12;;;;;;;;;;;15.50;88.10;;;;;;4360903;32;43942;-79
2022/04/22 15:01:40;;;;;;;;;;;15.50;88.40;;;;;;4361053;32;43473;-80
2022/04/22 15:04:07;;;;;;;;;;;15.60;88.70;;;;;;4348382;32;43929;-80
2022/04/22 15:06:35;;;;;;;;;;;15.60;87.90;;;;;;4360946;32;42983;-80
2022/04/22 15:09:04;;;;;;;;;;;15.60;87.90;;;;;;4360874;32;43075;-80
2022/04/22 15:11:34;;;;;;;;;;;15.60;87.30;;;;;;4361221;32;44969;-80
2022/04/22 15:14:04;;;;;;;;;;;15.60;88.60;;;;;;4347750;32;43907;-80
2022/04/22 15:16:31;;;;;;;;;;;15.60;88.60;;;;;;4346432;32;44054;-80
2022/04/22 15:24:31;;;;;;;;;;;15.60;87.70;;;;;;4360519;32;44340;-80
2022/04/22 15:26:58;;;;;;;;;;;15.70;87.40;;;;;;4347669;32;42768;-80
2022/04/22 15:29:29;;;;;;;;;;;15.70;87.40;;;;;;4347088;32;43842;-80
2022/04/22 15:31:59;;;;;;;;;;;15.70;87.70;;;;;;4360958;32;43500;-80
2022/04/22 15:34:27;;;;;;;;;;;15.70;87.90;;;;;;4360355;32;44147;-80
2022/04/22 15:36:54;;;;;;;;;;;15.70;88.50;;;;;;4346918;32;44085;-80
2022/04/22 15:39:21;;;;;;;;;;;15.70;88.40;;;;;;4346951;32;42151;-79
2022/04/22 15:41:52;;;;;;;;;;;15.80;88.70;;;;;;4347074;32;43069;-79
2022/04/22 15:44:26;;;;;;;;;;;15.80;88.40;;;;;;4360676;32;44819;-79
2022/04/22 15:46:54;;;;;;;;;;;15.80;88.30;;;;;;4360298;32;43494;-79
2022/04/22 15:49:21;;;;;;;;;;;15.80;87.70;;;;;;4347148;32;42761;-80